createdAt,value
2018-09-20T00:00:53.943Z,98660.65
2018-09-20T00:03:22.274Z,98656.14
2018-09-20T00:05:50.542Z,98667.55
2018-09-20T00:08:18.900Z,98663.61
2018-09-20T00:10:47.270Z,98660.30
2018-09-20T00:13:15.568Z,98655.02
2018-09-20T00:15:43.900Z,98656.66
2018-09-20T00:18:12.169Z,98657.77
2018-09-20T00:20:40.468Z,98653.80
2018-09-20T00:23:08.899Z,98652.31
2018-09-20T00:25:37.391Z,98647.84
2018-09-20T00:28:05.696Z,98648.89
2018-09-20T00:30:33.999Z,98647.41
2018-09-20T00:33:02.357Z,98652.64
2018-09-20T00:35:30.608Z,98646.44
2018-09-20T00:37:58.927Z,98646.06
2018-09-20T00:40:27.304Z,98646.63
2018-09-20T00:42:55.678Z,98647.81
2018-09-20T00:45:23.949Z,98647.05
2018-09-20T00:47:52.247Z,98650.95
2018-09-20T00:50:20.829Z,98659.80
2018-09-20T00:52:49.206Z,98651.77
2018-09-20T00:55:17.557Z,98659.78
2018-09-20T00:57:45.844Z,98657.63
2018-09-20T01:00:14.197Z,98649.30
2018-09-20T01:02:42.644Z,98648.07
2018-09-20T01:05:11.028Z,98642.86
2018-09-20T01:07:39.307Z,98636.98
2018-09-20T01:10:07.632Z,98635.48
2018-09-20T01:12:35.930Z,98641.30
2018-09-20T01:15:04.943Z,98634.51
2018-09-20T01:17:33.431Z,98631.72
2018-09-20T01:20:01.726Z,98640.34
2018-09-20T01:22:31.416Z,98636.70
2018-09-20T01:24:59.711Z,98643.66
2018-09-20T01:27:28.610Z,98636.23
2018-09-20T01:29:56.922Z,98636.60
2018-09-20T01:32:25.457Z,98641.55
2018-09-20T01:34:53.777Z,98640.72
2018-09-20T01:37:22.045Z,98648.75
2018-09-20T01:39:50.556Z,98651.58
2018-09-20T01:42:18.871Z,98652.66
2018-09-20T01:44:47.233Z,98653.25
2018-09-20T01:47:15.511Z,98640.62
2018-09-20T01:49:43.909Z,98639.73
2018-09-20T01:52:12.231Z,98635.52
2018-09-20T01:54:40.524Z,98641.05
2018-09-20T01:57:08.985Z,98641.78
2018-09-20T01:59:37.216Z,98646.76
2018-09-20T02:02:05.673Z,98652.83
2018-09-20T02:04:33.953Z,98647.24
2018-09-20T02:07:02.298Z,98646.84
2018-09-20T02:09:30.600Z,98647.34
2018-09-20T02:11:59.013Z,98644.62
2018-09-20T02:14:27.321Z,98646.97
2018-09-20T02:16:55.827Z,98646.22
2018-09-20T02:19:24.142Z,98648.80
2018-09-20T02:21:52.460Z,98656.52
2018-09-20T02:24:20.872Z,98651.25
2018-09-20T02:26:49.153Z,98651.36
2018-09-20T02:29:17.615Z,98647.74
2018-09-20T02:31:45.980Z,98650.55
2018-09-20T02:34:14.495Z,98645.94
2018-09-20T02:36:42.832Z,98657.64
2018-09-20T02:39:11.166Z,98656.30
2018-09-20T02:41:39.502Z,98652.42
2018-09-20T02:44:07.826Z,98657.63
2018-09-20T02:46:36.107Z,98661.35
2018-09-20T02:49:04.464Z,98652.98
2018-09-20T02:51:32.823Z,98651.59
2018-09-20T02:54:01.144Z,98655.03
2018-09-20T02:56:29.488Z,98656.28
2018-09-20T02:58:57.836Z,98649.00
2018-09-20T03:01:26.268Z,98658.25
2018-09-20T03:03:54.641Z,98652.13
2018-09-20T03:06:22.993Z,98656.57
2018-09-20T03:08:51.397Z,98644.14
2018-09-20T03:11:19.877Z,98645.77
2018-09-20T03:13:48.343Z,98651.36
2018-09-20T03:16:16.928Z,98652.64
2018-09-20T03:18:45.507Z,98653.42
2018-09-20T03:21:13.861Z,98644.77
2018-09-20T03:23:42.380Z,98648.59
2018-09-20T03:26:10.769Z,98652.37
2018-09-20T03:28:39.085Z,98647.46
2018-09-20T03:31:07.690Z,98650.75
2018-09-20T03:33:36.111Z,98648.80
2018-09-20T03:36:04.392Z,98646.66
2018-09-20T03:38:32.992Z,98645.48
2018-09-20T03:41:01.417Z,98651.06
2018-09-20T03:43:29.874Z,98648.67
2018-09-20T03:45:58.120Z,98645.00
2018-09-20T03:48:26.659Z,98648.19
2018-09-20T03:50:55.032Z,98646.56
2018-09-20T03:53:23.400Z,98652.58
2018-09-20T03:55:51.821Z,98655.62
2018-09-20T03:58:20.144Z,98659.87
2018-09-20T04:00:48.423Z,98667.50
2018-09-20T04:03:16.811Z,98660.10
2018-09-20T04:05:45.227Z,98654.39
2018-09-20T04:08:13.554Z,98661.68
2018-09-20T04:10:42.163Z,98660.25
2018-09-20T04:13:10.446Z,98658.67
2018-09-20T04:15:38.733Z,98657.81
2018-09-20T04:18:07.143Z,98652.95
2018-09-20T04:20:35.419Z,98659.30
2018-09-20T04:23:03.721Z,98655.23
2018-09-20T04:25:32.100Z,98652.42
2018-09-20T04:28:00.372Z,98652.42
2018-09-20T04:30:28.899Z,98657.77
2018-09-20T04:32:57.405Z,98655.58
2018-09-20T04:35:25.815Z,98661.53
2018-09-20T04:37:54.097Z,98659.02
2018-09-20T04:40:22.409Z,98659.09
2018-09-20T04:42:50.849Z,98658.10
2018-09-20T04:45:19.236Z,98665.09
2018-09-20T04:47:47.827Z,98669.09
2018-09-20T04:50:16.123Z,98671.33
2018-09-20T04:52:44.504Z,98669.09
2018-09-20T04:55:12.865Z,98678.33
2018-09-20T04:57:41.207Z,98679.32
2018-09-20T05:00:09.634Z,98677.27
2018-09-20T05:02:37.962Z,98673.36
2018-09-20T05:05:06.432Z,98672.05
2018-09-20T05:07:34.709Z,98674.34
2018-09-20T05:10:03.013Z,98670.11
2018-09-20T05:12:31.321Z,98677.70
2018-09-20T05:14:59.775Z,98675.50
2018-09-20T05:17:28.277Z,98673.02
2018-09-20T05:19:56.591Z,98676.51
2018-09-20T05:22:24.875Z,98680.92
2018-09-20T05:24:53.151Z,98688.92
2018-09-20T05:27:22.580Z,98688.09
2018-09-20T05:29:50.958Z,98688.45
2018-09-20T05:32:19.456Z,98694.88
2018-09-20T05:34:47.882Z,98692.11
2018-09-20T05:37:16.303Z,98691.25
2018-09-20T05:39:44.648Z,98691.13
2018-09-20T05:42:13.074Z,98694.39
2018-09-20T05:44:41.369Z,98688.56
2018-09-20T05:47:09.944Z,98688.33
2018-09-20T05:49:38.239Z,98690.50
2018-09-20T05:52:06.764Z,98694.20
2018-09-20T05:54:35.110Z,98695.73
2018-09-20T05:57:03.654Z,98694.81
2018-09-20T05:59:32.101Z,98700.72
2018-09-20T06:02:00.502Z,98708.20
2018-09-20T06:04:28.939Z,98706.52
2018-09-20T06:06:57.273Z,98704.59
2018-09-20T06:09:25.589Z,98708.33
2018-09-20T06:11:53.988Z,98712.97
2018-09-20T06:14:22.308Z,98713.94
2018-09-20T06:16:50.644Z,98720.11
2018-09-20T06:19:18.944Z,98719.92
2018-09-20T06:21:47.341Z,98718.20
2018-09-20T06:24:15.546Z,98723.74
2018-09-20T06:26:44.024Z,98717.62
2018-09-20T06:29:12.624Z,98716.02
2018-09-20T06:31:41.322Z,98717.66
2018-09-20T06:34:09.826Z,98720.56
2018-09-20T06:36:38.428Z,98714.30
2018-09-20T06:39:09.992Z,98720.03
2018-09-20T06:41:38.455Z,98714.19
2018-09-20T06:44:06.996Z,98719.87
2018-09-20T06:46:35.379Z,98723.80
2018-09-20T06:49:03.707Z,98715.59
2018-09-20T06:51:32.130Z,98723.61
2018-09-20T06:54:00.541Z,98725.62
2018-09-20T06:56:28.844Z,98720.22
2018-09-20T06:58:57.135Z,98725.77
2018-09-20T07:01:26.197Z,98720.82
2018-09-20T07:03:54.487Z,98706.84
2018-09-20T07:06:22.924Z,98718.01
2018-09-20T07:08:51.263Z,98713.53
2018-09-20T07:11:19.596Z,98719.56
2018-09-20T07:13:48.129Z,98718.67
2018-09-20T07:16:16.419Z,98720.38
2018-09-20T07:18:44.758Z,98717.38
2018-09-20T07:21:13.107Z,98714.26
2018-09-20T07:23:41.394Z,98712.72
2018-09-20T07:26:09.858Z,98719.58
2018-09-20T07:28:38.164Z,98719.80
2018-09-20T07:31:06.920Z,98718.91
2018-09-20T07:33:35.272Z,98727.34
2018-09-20T07:36:03.556Z,98730.39
2018-09-20T07:38:31.958Z,98726.78
2018-09-20T07:41:00.320Z,98719.59
2018-09-20T07:43:28.671Z,98720.31
2018-09-20T07:45:56.999Z,98724.24
2018-09-20T07:48:25.316Z,98722.48
2018-09-20T07:50:53.645Z,98729.16
2018-09-20T07:53:22.070Z,98722.32
2018-09-20T07:55:50.304Z,98727.84
2018-09-20T07:58:18.773Z,98724.70
2018-09-20T08:00:47.040Z,98722.53
2018-09-20T08:03:15.407Z,98727.90
2018-09-20T08:05:43.688Z,98725.08
2018-09-20T08:08:12.030Z,98725.81
2018-09-20T08:10:40.379Z,98727.59
2018-09-20T08:13:08.779Z,98727.10
2018-09-20T08:15:37.103Z,98722.86
2018-09-20T08:18:05.369Z,98720.52
2018-09-20T08:20:33.692Z,98717.20
2018-09-20T08:23:01.966Z,98720.06
2018-09-20T08:25:30.422Z,98720.05
2018-09-20T08:27:58.898Z,98719.19
2018-09-20T08:30:27.132Z,98718.84
2018-09-20T08:32:55.412Z,98721.71
2018-09-20T08:35:23.714Z,98719.89
2018-09-20T08:37:52.085Z,98716.75
2018-09-20T08:40:20.417Z,98711.00
2018-09-20T08:42:48.693Z,98714.51
2018-09-20T08:45:17.046Z,98710.77
2018-09-20T08:47:45.350Z,98709.73
2018-09-20T08:50:13.686Z,98716.30
2018-09-20T08:52:42.092Z,98713.75
2018-09-20T08:55:10.500Z,98712.55
2018-09-20T08:57:44.024Z,98716.07
2018-09-20T09:00:12.303Z,98707.53
2018-09-20T09:02:40.682Z,98713.03
2018-09-20T09:05:09.075Z,98716.98
2018-09-20T09:07:38.178Z,98715.89
2018-09-20T09:10:06.946Z,98716.05
2018-09-20T09:12:35.207Z,98710.48
2018-09-20T09:15:03.461Z,98711.42
2018-09-20T09:17:31.872Z,98712.50
2018-09-20T09:20:00.073Z,98698.21
2018-09-20T09:22:28.378Z,98707.00
2018-09-20T09:24:57.073Z,98701.67
2018-09-20T09:27:25.438Z,98703.23
2018-09-20T09:29:53.756Z,98698.30
2018-09-20T09:32:22.007Z,98700.53
2018-09-20T09:34:50.335Z,98698.66
2018-09-20T09:37:19.764Z,98696.52
2018-09-20T09:39:48.089Z,98692.66
2018-09-20T09:42:16.469Z,98693.23
2018-09-20T09:44:44.731Z,98684.08
2018-09-20T09:47:13.050Z,98686.34
2018-09-20T09:49:41.400Z,98683.86
2018-09-20T09:52:09.718Z,98682.78
2018-09-20T09:54:38.028Z,98684.52
2018-09-20T09:57:06.750Z,98674.58
2018-09-20T09:59:35.168Z,98670.38
2018-09-20T10:02:03.542Z,98670.64
2018-09-20T10:04:31.866Z,98670.23
2018-09-20T10:07:00.315Z,98663.97
2018-09-20T10:09:28.619Z,98662.84
2018-09-20T10:11:56.913Z,98659.08
2018-09-20T10:14:25.302Z,98650.43
2018-09-20T10:16:53.617Z,98651.96
2018-09-20T10:19:21.860Z,98643.40
2018-09-20T10:21:50.224Z,98648.54
2018-09-20T10:24:18.523Z,98644.17
2018-09-20T10:26:46.859Z,98646.92
2018-09-20T10:29:15.221Z,98648.61
2018-09-20T10:31:43.545Z,98648.03
2018-09-20T10:34:11.999Z,98641.58
2018-09-20T10:36:40.214Z,98646.25
2018-09-20T10:39:11.370Z,98640.31
2018-09-20T10:41:39.686Z,98638.27
2018-09-20T10:44:08.340Z,98637.98
2018-09-20T10:46:36.719Z,98632.73
2018-09-20T10:49:05.008Z,98630.47
2018-09-20T10:51:33.316Z,98623.02
2018-09-20T10:54:01.597Z,98625.30
2018-09-20T10:56:29.877Z,98619.77
2018-09-20T10:58:58.325Z,98619.05
2018-09-20T11:01:26.684Z,98607.44
2018-09-20T11:03:55.069Z,98608.58
2018-09-20T11:06:23.379Z,98607.79
2018-09-20T11:08:51.989Z,98600.63
2018-09-20T11:11:20.401Z,98596.32
2018-09-20T11:13:48.786Z,98598.31
2018-09-20T11:16:17.992Z,98596.27
2018-09-20T11:18:46.572Z,98591.80
2018-09-20T11:21:15.159Z,98586.83
2018-09-20T11:23:43.725Z,98584.24
2018-09-20T11:26:12.129Z,98582.84
2018-09-20T11:28:41.143Z,98581.77
2018-09-20T11:31:09.814Z,98579.69
2018-09-20T11:33:38.256Z,98569.48
2018-09-20T11:36:06.716Z,98562.33
2018-09-20T11:38:35.218Z,98566.13
2018-09-20T11:41:03.654Z,98555.03
2018-09-20T11:43:32.117Z,98557.60
2018-09-20T11:46:00.677Z,98556.58
2018-09-20T11:48:28.950Z,98552.13
2018-09-20T11:50:57.297Z,98548.17
2018-09-20T11:53:25.629Z,98547.05
2018-09-20T11:55:53.900Z,98542.39
2018-09-20T11:58:22.333Z,98541.48
2018-09-20T12:00:50.756Z,98542.64
2018-09-20T12:03:19.039Z,98544.21
2018-09-20T12:05:47.411Z,98532.52
2018-09-20T12:08:16.157Z,98528.14
2018-09-20T12:10:44.471Z,98525.98
2018-09-20T12:13:12.839Z,98529.31
2018-09-20T12:15:41.168Z,98521.65
2018-09-20T12:18:09.481Z,98515.70
2018-09-20T12:20:37.947Z,98505.13
2018-09-20T12:23:06.201Z,98504.03
2018-09-20T12:25:34.531Z,98496.69
2018-09-20T12:28:02.839Z,98492.54
2018-09-20T12:30:31.336Z,98497.08
2018-09-20T12:32:59.630Z,98484.13
2018-09-20T12:35:28.118Z,98486.40
2018-09-20T12:37:56.408Z,98477.28
2018-09-20T12:40:24.696Z,98479.02
2018-09-20T12:42:53.204Z,98482.98
2018-09-20T12:45:21.456Z,98471.22
2018-09-20T12:47:49.752Z,98471.53
2018-09-20T12:50:18.069Z,98468.28
2018-09-20T12:52:46.492Z,98470.44
2018-09-20T12:55:15.042Z,98466.23
2018-09-20T12:57:43.410Z,98451.12
2018-09-20T13:00:11.882Z,98456.63
2018-09-20T13:02:40.222Z,98452.42
2018-09-20T13:05:08.648Z,98449.54
2018-09-20T13:07:36.954Z,98436.80
2018-09-20T13:10:05.411Z,98433.39
2018-09-20T13:12:33.761Z,98433.39
2018-09-20T13:15:02.177Z,98429.23
2018-09-20T13:17:30.727Z,98423.09
2018-09-20T13:19:59.063Z,98426.66
2018-09-20T13:22:27.489Z,98422.45
2018-09-20T13:24:56.110Z,98415.16
2018-09-20T13:27:24.793Z,98416.54
2018-09-20T13:29:53.212Z,98410.75
2018-09-20T13:32:21.755Z,98408.99
2018-09-20T13:34:50.352Z,98404.41
2018-09-20T13:37:18.958Z,98407.16
2018-09-20T13:39:47.650Z,98398.94
2018-09-20T13:42:15.938Z,98401.40
2018-09-20T13:44:44.268Z,98395.75
2018-09-20T13:47:12.724Z,98397.22
2018-09-20T13:49:40.989Z,98397.10
2018-09-20T13:52:09.377Z,98389.55
2018-09-20T13:54:37.771Z,98387.50
2018-09-20T13:57:06.159Z,98383.18
2018-09-20T13:59:34.458Z,98388.09
2018-09-20T14:02:03.722Z,98390.83
2018-09-20T14:04:32.261Z,98379.26
2018-09-20T14:07:00.556Z,98381.31
2018-09-20T14:09:29.337Z,98378.98
2018-09-20T14:11:57.650Z,98375.00
2018-09-20T14:14:25.931Z,98382.05
2018-09-20T14:16:54.227Z,98371.11
2018-09-20T14:19:22.703Z,98375.70
2018-09-20T14:21:50.992Z,98370.34
2018-09-20T14:24:19.557Z,98364.20
2018-09-20T14:26:47.847Z,98361.63
2018-09-20T14:29:16.223Z,98354.98
2018-09-20T14:31:44.956Z,98353.14
2018-09-20T14:34:13.199Z,98352.48
2018-09-20T14:36:41.564Z,98354.95
2018-09-20T14:39:10.970Z,98351.38
2018-09-20T14:41:39.679Z,98348.23
2018-09-20T14:44:08.022Z,98347.36
2018-09-20T14:46:36.303Z,98338.87
2018-09-20T14:49:04.697Z,98337.81
2018-09-20T14:51:33.131Z,98339.02
2018-09-20T14:54:01.460Z,98332.30
2018-09-20T14:56:29.769Z,98333.75
2018-09-20T14:58:58.102Z,98329.27
2018-09-20T15:01:26.385Z,98325.16
2018-09-20T15:03:54.740Z,98327.63
2018-09-20T15:06:23.053Z,98316.81
2018-09-20T15:08:51.404Z,98319.23
2018-09-20T15:11:19.688Z,98319.31
2018-09-20T15:13:48.244Z,98319.69
2018-09-20T15:16:16.538Z,98316.75
2018-09-20T15:18:44.841Z,98312.42
2018-09-20T15:21:13.145Z,98307.89
2018-09-20T15:23:41.429Z,98303.93
2018-09-20T15:26:09.727Z,98303.22
2018-09-20T15:28:38.419Z,98298.66
2018-09-20T15:31:06.943Z,98297.17
2018-09-20T15:33:35.255Z,98291.98
2018-09-20T15:36:03.552Z,98291.61
2018-09-20T15:38:31.858Z,98293.66
2018-09-20T15:41:01.138Z,98287.28
2018-09-20T15:43:29.376Z,98286.98
2018-09-20T15:45:57.681Z,98279.50
2018-09-20T15:48:26.048Z,98284.97
2018-09-20T15:50:54.482Z,98286.09
2018-09-20T15:53:22.800Z,98286.48
2018-09-20T15:55:51.089Z,98285.30
2018-09-20T15:58:19.615Z,98281.48
2018-09-20T16:00:47.860Z,98278.77
2018-09-20T16:03:17.007Z,98279.61
2018-09-20T16:05:45.323Z,98279.03
2018-09-20T16:08:13.649Z,98277.95
2018-09-20T16:10:41.953Z,98275.38
2018-09-20T16:13:10.353Z,98277.56
2018-09-20T16:15:39.503Z,98273.77
2018-09-20T16:18:08.025Z,98272.91
2018-09-20T16:20:36.286Z,98279.73
2018-09-20T16:23:04.604Z,98269.09
2018-09-20T16:25:32.856Z,98263.41
2018-09-20T16:28:10.528Z,98264.95
2018-09-20T16:30:52.440Z,98257.06
2018-09-20T16:33:38.611Z,98255.33
2018-09-20T16:36:17.710Z,98257.02
2018-09-20T16:38:56.007Z,98257.60
2018-09-20T16:41:30.820Z,98255.37
2018-09-20T16:43:59.929Z,98253.20
2018-09-20T16:46:28.224Z,98249.92
2018-09-20T16:48:56.536Z,98254.92
2018-09-20T16:51:24.855Z,98254.83
2018-09-20T16:53:53.313Z,98262.56
2018-09-20T16:56:21.866Z,98256.33
2018-09-20T16:58:51.511Z,98256.19
2018-09-20T17:01:20.604Z,98254.74
2018-09-20T17:03:49.177Z,98255.40
2018-09-20T17:06:18.242Z,98258.83
2018-09-20T17:08:47.344Z,98254.37
2018-09-20T17:11:15.678Z,98260.41
2018-09-20T17:13:44.176Z,98252.41
2018-09-20T17:16:12.667Z,98252.98
2018-09-20T17:18:40.985Z,98258.36
2018-09-20T17:21:09.577Z,98254.30
2018-09-20T17:23:37.978Z,98259.83
2018-09-20T17:26:06.456Z,98262.30
2018-09-20T17:28:34.921Z,98262.13
2018-09-20T17:31:03.342Z,98264.41
2018-09-20T17:33:31.988Z,98263.70
2018-09-20T17:36:00.752Z,98257.63
2018-09-20T17:38:31.170Z,98262.36
2018-09-20T17:41:09.580Z,98264.41
2018-09-20T17:43:46.376Z,98262.33
2018-09-20T17:46:15.141Z,98266.00
2018-09-20T17:48:43.475Z,98257.86
2018-09-20T17:51:13.272Z,98262.98
2018-09-20T17:53:42.976Z,98265.81
2018-09-20T17:56:12.167Z,98263.34
2018-09-20T17:58:41.661Z,98263.22
2018-09-20T18:01:10.083Z,98266.27
2018-09-20T18:03:38.356Z,98266.64
2018-09-20T18:06:06.804Z,98273.95
2018-09-20T18:08:35.268Z,98266.72
2018-09-20T18:11:03.713Z,98269.75
2018-09-20T18:13:32.416Z,98266.16
2018-09-20T18:16:00.703Z,98268.83
2018-09-20T18:18:29.000Z,98275.91
2018-09-20T18:20:57.318Z,98275.46
2018-09-20T18:23:25.818Z,98271.05
2018-09-20T18:25:54.119Z,98272.06
2018-09-20T18:28:53.800Z,98273.23
2018-09-20T18:31:22.096Z,98269.54
2018-09-20T18:33:53.037Z,98273.23
2018-09-20T18:36:21.671Z,98271.23
2018-09-20T18:38:49.982Z,98273.47
2018-09-20T18:41:18.394Z,98268.63
2018-09-20T18:43:46.751Z,98270.52
2018-09-20T18:46:15.201Z,98274.18
2018-09-20T18:48:43.504Z,98273.02
2018-09-20T18:51:11.904Z,98275.56
2018-09-20T18:53:40.149Z,98279.45
2018-09-20T18:56:08.392Z,98275.64
2018-09-20T18:58:36.702Z,98281.06
2018-09-20T19:01:05.018Z,98272.85
2018-09-20T19:03:33.376Z,98276.93
2018-09-20T19:06:02.118Z,98272.38
2018-09-20T19:08:30.435Z,98274.27
2018-09-20T19:10:59.990Z,98269.91
2018-09-20T19:13:28.923Z,98275.80
2018-09-20T19:15:57.428Z,98272.31
2018-09-20T19:18:26.310Z,98269.58
2018-09-20T19:20:54.677Z,98268.92
2018-09-20T19:23:23.128Z,98271.78
2018-09-20T19:25:51.571Z,98267.23
2018-09-20T19:28:20.076Z,98268.42
2018-09-20T19:30:48.480Z,98262.21
2018-09-20T19:33:16.857Z,98265.25
2018-09-20T19:35:45.245Z,98264.92
2018-09-20T19:38:13.696Z,98265.98
2018-09-20T19:40:42.125Z,98261.96
2018-09-20T19:43:11.361Z,98261.96
2018-09-20T19:45:39.680Z,98260.48
2018-09-20T19:48:07.974Z,98257.27
2018-09-20T19:50:36.396Z,98252.92
2018-09-20T19:53:04.772Z,98255.31
2018-09-20T19:55:33.162Z,98253.45
2018-09-20T19:58:01.474Z,98247.54
2018-09-20T20:00:29.981Z,98245.20
2018-09-20T20:02:58.506Z,98245.23
2018-09-20T20:05:26.820Z,98254.30
2018-09-20T20:07:55.107Z,98245.42
2018-09-20T20:10:23.572Z,98240.37
2018-09-20T20:12:51.867Z,98235.50
2018-09-20T20:15:20.176Z,98234.83
2018-09-20T20:17:48.481Z,98230.65
2018-09-20T20:20:16.816Z,98232.66
2018-09-20T20:22:45.152Z,98232.15
2018-09-20T20:25:13.945Z,98229.81
2018-09-20T20:27:44.320Z,98227.45
2018-09-20T20:30:12.872Z,98222.23
2018-09-20T20:32:41.193Z,98221.88
2018-09-20T20:35:09.658Z,98212.98
2018-09-20T20:37:38.225Z,98218.00
2018-09-20T20:40:08.184Z,98212.47
2018-09-20T20:42:36.836Z,98208.61
2018-09-20T20:45:05.331Z,98204.23
2018-09-20T20:47:33.841Z,98208.95
2018-09-20T20:50:02.391Z,98209.44
2018-09-20T20:52:31.758Z,98205.89
2018-09-20T20:55:00.251Z,98207.67
2018-09-20T20:57:28.651Z,98210.49
2018-09-20T20:59:57.424Z,98211.80
2018-09-20T21:02:25.880Z,98214.73
2018-09-20T21:04:54.395Z,98212.36
2018-09-20T21:07:23.028Z,98209.10
2018-09-20T21:09:51.613Z,98201.90
2018-09-20T21:12:20.039Z,98204.91
2018-09-20T21:14:48.397Z,98201.76
2018-09-20T21:17:17.404Z,98199.16
2018-09-20T21:19:45.770Z,98202.36
2018-09-20T21:22:14.138Z,98202.55
2018-09-20T21:24:42.455Z,98192.49
2018-09-20T21:27:10.749Z,98194.09
2018-09-20T21:29:39.938Z,98196.16
2018-09-20T21:32:09.433Z,98190.79
2018-09-20T21:34:38.109Z,98185.22
2018-09-20T21:37:06.780Z,98192.89
2018-09-20T21:39:35.357Z,98191.01
2018-09-20T21:42:03.952Z,98182.28
2018-09-20T21:44:32.430Z,98182.19
2018-09-20T21:47:00.847Z,98178.25
2018-09-20T21:49:29.217Z,98176.17
2018-09-20T21:51:57.689Z,98173.61
2018-09-20T21:54:26.409Z,98172.98
2018-09-20T21:56:56.597Z,98170.78
2018-09-20T21:59:28.765Z,98171.60
2018-09-20T22:02:08.652Z,98165.19
2018-09-20T22:04:41.699Z,98161.50
2018-09-20T22:07:28.360Z,98157.58
2018-09-20T22:10:04.102Z,98162.56
2018-09-20T22:12:46.778Z,98158.85
2018-09-20T22:15:31.115Z,98157.27
2018-09-20T22:18:09.600Z,98153.84
2018-09-20T22:20:44.874Z,98156.05
2018-09-20T22:23:17.126Z,98152.77
2018-09-20T22:25:59.264Z,98149.44
2018-09-20T22:28:30.088Z,98149.63
2018-09-20T22:33:48.397Z,98143.12
2018-09-20T22:36:17.198Z,98138.58
2018-09-20T22:38:48.280Z,98132.08
2018-09-20T22:41:16.616Z,98132.87
2018-09-20T22:43:44.947Z,98129.98
2018-09-20T22:46:13.429Z,98133.48
2018-09-20T22:48:43.796Z,98125.75
2018-09-20T22:51:12.847Z,98124.98
2018-09-20T22:53:41.813Z,98124.73
2018-09-20T22:56:13.301Z,98127.52
2018-09-20T22:58:42.274Z,98121.51
2018-09-20T23:01:15.913Z,98123.23
2018-09-20T23:03:47.159Z,98122.71
2018-09-20T23:06:19.791Z,98114.65
2018-09-20T23:08:48.300Z,98112.36
2018-09-20T23:11:16.665Z,98116.16
2018-09-20T23:13:44.980Z,98109.14
2018-09-20T23:16:13.494Z,98116.75
2018-09-20T23:18:41.858Z,98101.20
2018-09-20T23:21:10.199Z,98103.72
2018-09-20T23:23:38.631Z,98101.19
2018-09-20T23:26:07.123Z,98101.01
2018-09-20T23:28:35.428Z,98093.85
2018-09-20T23:31:03.745Z,98099.74
2018-09-20T23:33:32.173Z,98099.80
2018-09-20T23:36:00.579Z,98089.70
2018-09-20T23:38:28.920Z,98094.67
2018-09-20T23:40:57.256Z,98091.09
2018-09-20T23:43:25.624Z,98092.59
2018-09-20T23:45:54.027Z,98088.67
2018-09-20T23:48:22.357Z,98088.55
2018-09-20T23:50:50.692Z,98083.29
2018-09-20T23:53:19.075Z,98088.16
2018-09-20T23:55:47.358Z,98090.80
2018-09-20T23:58:15.708Z,98094.06
